Time;durP1;ratioP1;P1;durP2;ratioP2;P2;SDS_P1;SDS_P2;PMS_P1;PMS_P2;Temp;Humidity;BMP_temperature;BMP_pressure;BME280_temperature;BME280_humidity;BME280_pressure;Samples;Min_cycle;Max_cycle;Signal;HPM_P1;HPM_P2
2022/01/11 00:01:41;;;;;;;51.45;30.63;;;;;;;0.23;66.87;100118.78;5088609;28;20243;-66
2022/01/11 00:04:11;;;;;;;46.63;30.08;;;;;;;0.22;66.84;100129.22;5088580;28;20311;-65
2022/01/11 00:06:44;;;;;;;48.53;28.67;;;;;;;0.25;66.87;100135.31;5088488;28;20028;-66
2022/01/11 00:09:31;;;;;;;41.85;28.13;;;;;;;0.23;66.92;100137.03;5088191;28;20036;-66
2022/01/11 00:12:08;;;;;;;41.50;26.17;;;;;;;-1.16;66.80;99943.41;5088131;28;20048;-66
2022/01/11 00:14:40;;;;;;;45.20;25.67;;;;;;;0.03;67.06;100114.47;5088005;28;20051;-66
2022/01/11 00:17:13;;;;;;;45.28;27.00;;;;;;;-0.23;66.95;100065.84;5088052;28;20063;-66
2022/01/11 00:19:48;;;;;;;42.17;25.15;;;;;;;0.32;67.01;100148.34;5070426;28;20044;-65
2022/01/11 00:22:26;;;;;;;41.60;27.10;;;;;;;-0.72;66.71;99998.13;5088225;28;20315;-65
2022/01/11 00:24:58;;;;;;;41.38;25.80;;;;;;;0.29;66.47;100149.22;5087934;28;20055;-65
2022/01/11 00:27:31;;;;;;;41.15;27.15;;;;;;;-0.50;66.73;100013.75;5087120;28;20036;-66
2022/01/11 00:30:07;;;;;;;40.38;24.63;;;;;;;-0.43;66.64;100036.31;5088152;28;20044;-65
2022/01/11 00:32:45;;;;;;;44.55;25.08;;;;;;;0.02;66.59;100110.13;5087695;28;20043;-65
2022/01/11 00:35:22;;;;;;;39.38;24.15;;;;;;;0.07;66.37;100126.63;5087531;28;20044;-65
2022/01/11 00:37:54;;;;;;;40.60;24.60;;;;;;;0.23;66.48;100170.06;5087699;28;20040;-66
2022/01/11 00:40:26;;;;;;;37.08;22.58;;;;;;;-0.51;66.83;100103.16;5087194;28;20058;-66
2022/01/11 00:43:00;;;;;;;37.50;22.45;;;;;;;-0.26;66.30;100101.44;5087880;28;20040;-65
2022/01/11 00:45:33;;;;;;;38.30;23.33;;;;;;;0.19;66.46;100183.97;5087047;28;20293;-65
2022/01/11 00:48:05;;;;;;;41.08;24.85;;;;;;;-0.91;66.38;100043.22;5087746;28;20040;-65
2022/01/11 00:50:38;;;;;;;36.92;22.70;;;;;;;0.15;66.24;100193.53;5087481;28;20048;-66
2022/01/11 00:53:11;;;;;;;34.22;22.98;;;;;;;-0.51;65.98;100075.38;5087220;28;20048;-66
2022/01/11 00:55:44;;;;;;;37.92;22.17;;;;;;;0.08;66.34;100198.75;5086793;28;20046;-66
2022/01/11 00:58:19;;;;;;;36.67;22.80;;;;;;;0.04;65.95;100208.28;5069757;28;20261;-65
2022/01/11 01:00:51;;;;;;;36.25;20.73;;;;;;;0.00;65.88;100206.56;5087262;28;20044;-65
2022/01/11 01:03:24;;;;;;;34.20;22.35;;;;;;;0.01;65.92;100197.00;5087465;28;20097;-66
2022/01/11 01:05:57;;;;;;;40.35;22.75;;;;;;;-0.86;66.11;100090.06;5086724;28;20068;-65
2022/01/11 01:08:30;;;;;;;35.10;21.83;;;;;;;0.02;66.13;100211.78;5086008;28;20044;-68
2022/01/11 01:11:02;;;;;;;36.22;22.02;;;;;;;0.03;66.15;100213.50;5086299;28;20060;-66
2022/01/11 01:13:36;;;;;;;35.40;22.38;;;;;;;0.03;66.08;100219.59;5086072;28;20060;-66
2022/01/11 01:16:09;;;;;;;35.60;20.95;;;;;;;0.04;65.94;100218.72;5086824;28;20049;-66
2022/01/11 01:18:41;;;;;;;35.40;20.95;;;;;;;-0.01;65.72;100223.06;5087131;28;20054;-66
2022/01/11 01:21:13;;;;;;;34.13;21.95;;;;;;;-1.03;66.06;100057.03;5086352;28;20040;-66
2022/01/11 01:23:46;;;;;;;34.88;21.42;;;;;;;0.02;66.31;100227.41;5086735;28;20391;-66
2022/01/11 01:26:18;;;;;;;35.85;23.00;;;;;;;0.02;65.93;100228.28;5086154;28;20086;-66
2022/01/11 01:28:53;;;;;;;38.75;20.73;;;;;;;-0.02;65.68;100226.53;5086588;28;20303;-65
2022/01/11 01:31:25;;;;;;;36.80;21.98;;;;;;;-0.08;65.87;100234.34;5086887;28;20395;-65
2022/01/11 01:33:58;;;;;;;35.97;22.10;;;;;;;-0.09;65.94;100230.88;5086531;28;20041;-66
2022/01/11 01:36:30;;;;;;;34.97;19.88;;;;;;;-0.09;65.88;100233.47;5086352;28;20048;-67
2022/01/11 01:39:03;;;;;;;37.03;23.13;;;;;;;-4.90;65.55;99429.94;5086718;28;20090;-66
2022/01/11 01:41:33;;;;;;;35.97;22.33;;;;;;;-0.09;66.08;100232.59;5086368;28;20040;-66
2022/01/11 01:44:04;;;;;;;39.40;23.17;;;;;;;-0.10;65.73;100242.16;5085863;28;20041;-65
2022/01/11 01:46:33;;;;;;;36.70;21.48;;;;;;;-0.06;65.72;100240.44;5087108;28;20040;-65
2022/01/11 01:49:04;;;;;;;34.67;20.58;;;;;;;-0.08;66.07;100243.03;5086534;28;20059;-66
2022/01/11 01:51:33;;;;;;;32.17;19.20;;;;;;;-0.06;65.87;100245.63;5086500;28;20051;-64
2022/01/11 01:54:04;;;;;;;36.13;21.95;;;;;;;-0.10;65.77;100246.50;5085961;28;20130;-66
2022/01/11 01:56:35;;;;;;;36.40;21.23;;;;;;;-0.10;65.59;100249.09;5086016;28;20074;-65
2022/01/11 01:59:05;;;;;;;36.55;22.20;;;;;;;-0.07;65.61;100249.97;5086105;28;20064;-66
2022/01/11 02:01:39;;;;;;;38.55;23.48;;;;;;;-0.14;65.46;100243.00;5086253;28;20053;-66
2022/01/11 02:04:09;;;;;;;33.10;21.38;;;;;;;-0.20;64.84;100257.75;5086249;28;20041;-66
2022/01/11 02:06:39;;;;;;;31.00;19.60;;;;;;;-0.16;65.49;100247.34;5086189;28;20120;-66
2022/01/11 02:09:11;;;;;;;35.05;19.45;;;;;;;-0.13;65.51;100254.31;5086224;28;20081;-66
2022/01/11 02:11:39;;;;;;;36.47;22.13;;;;;;;-0.15;65.41;100266.47;5085439;28;20060;-66
2022/01/11 02:14:11;;;;;;;31.85;18.83;;;;;;;-0.19;65.52;100260.38;5086136;28;20040;-64
2022/01/11 02:16:39;;;;;;;31.77;18.67;;;;;;;-0.21;65.15;100253.41;5085723;28;20108;-64
2022/01/11 02:19:09;;;;;;;33.83;21.25;;;;;;;-0.17;65.34;100253.44;5085958;28;20044;-65
2022/01/11 02:21:41;;;;;;;31.35;19.95;;;;;;;-0.15;65.06;100253.44;5085716;28;20040;-64
2022/01/11 02:24:10;;;;;;;31.90;19.20;;;;;;;-0.11;65.25;100261.25;5086022;28;20041;-65
2022/01/11 02:26:40;;;;;;;32.28;21.15;;;;;;;-0.16;64.95;100260.38;5085706;28;20044;-65
2022/01/11 02:29:10;;;;;;;39.72;21.13;;;;;;;-0.43;64.96;100222.09;5085648;28;20036;-66
2022/01/11 02:31:40;;;;;;;33.58;18.90;;;;;;;-0.19;64.93;100268.19;5085630;28;20047;-65
2022/01/11 02:34:10;;;;;;;32.40;18.90;;;;;;;-0.25;64.42;100267.31;5085898;28;20090;-65
2022/01/11 02:36:42;;;;;;;29.83;20.15;;;;;;;-0.29;64.64;100274.25;5085485;28;20044;-65
2022/01/11 02:39:10;;;;;;;37.00;21.67;;;;;;;-0.29;64.53;100265.56;5085839;28;20060;-65
2022/01/11 02:41:50;;;;;;;33.08;19.70;;;;;;;-0.34;64.06;100281.16;5085520;28;20040;-65
2022/01/11 02:44:22;;;;;;;34.80;20.50;;;;;;;-0.31;65.09;100270.75;5085482;28;20082;-65
2022/01/11 02:46:54;;;;;;;30.90;19.35;;;;;;;-0.29;64.90;100276.84;5085512;28;20044;-65
2022/01/11 02:49:27;;;;;;;34.35;20.75;;;;;;;-0.30;64.65;100282.91;5085732;28;20239;-65
2022/01/11 02:52:00;;;;;;;32.58;18.63;;;;;;;-0.32;64.87;100270.75;5085720;28;20312;-65
2022/01/11 02:54:33;;;;;;;28.67;18.73;;;;;;;-0.32;64.45;100274.22;5085250;28;20052;-65
2022/01/11 02:57:06;;;;;;;29.48;19.38;;;;;;;-0.33;64.44;100279.44;5085533;28;20066;-65
2022/01/11 02:59:38;;;;;;;28.75;17.33;;;;;;;-0.39;64.15;100278.53;5084836;28;20044;-65
2022/01/11 03:02:10;;;;;;;29.95;17.42;;;;;;;-0.41;64.14;100288.09;5085592;28;20044;-65
2022/01/11 03:04:44;;;;;;;30.63;18.27;;;;;;;-0.45;64.35;100283.72;5085557;28;20048;-65
2022/01/11 03:07:20;;;;;;;30.35;16.58;;;;;;;-0.43;64.09;100284.59;5084694;28;20045;-65
2022/01/11 03:10:02;;;;;;;29.13;18.17;;;;;;;-0.40;64.50;100289.81;5085484;28;20293;-65
2022/01/11 03:12:35;;;;;;;27.88;17.65;;;;;;;-0.40;64.38;100284.63;5085230;28;20040;-65
2022/01/11 03:15:08;;;;;;;32.00;20.08;;;;;;;-0.39;64.48;100283.75;5085126;28;20094;-65
2022/01/11 03:17:41;;;;;;;27.23;16.75;;;;;;;-0.37;64.54;100289.84;5085105;28;20067;-65
2022/01/11 03:20:14;;;;;;;31.25;18.45;;;;;;;-0.32;64.66;100291.59;5085140;28;20096;-65
2022/01/11 03:22:47;;;;;;;32.97;18.65;;;;;;;-0.56;64.37;100254.16;5085146;28;20047;-65
2022/01/11 03:25:20;;;;;;;31.42;17.83;;;;;;;-0.38;64.19;100297.66;5085403;28;20041;-65
2022/01/11 03:27:52;;;;;;;29.27;17.13;;;;;;;-0.41;64.48;100295.91;5085067;28;20040;-65
2022/01/11 03:30:24;;;;;;;29.15;16.77;;;;;;;-0.44;64.21;100295.88;5085641;28;20247;-65
2022/01/11 03:32:57;;;;;;;27.15;16.85;;;;;;;-0.50;64.55;100289.78;5089213;28;20045;-65
2022/01/11 03:35:30;;;;;;;26.00;16.77;;;;;;;-0.50;64.60;100300.19;5088812;28;20085;-65
2022/01/11 03:38:05;;;;;;;30.10;16.95;;;;;;;-0.52;64.53;100308.00;5089062;28;20342;-65
2022/01/11 03:40:38;;;;;;;;;;;;;;;-0.50;63.59;100295.88;5089541;28;20045;-65
2022/01/11 03:43:10;;;;;;;30.63;17.55;;;;;;;-0.44;64.73;100302.84;5088966;28;19966;-65
2022/01/11 03:45:42;;;;;;;28.48;18.48;;;;;;;-0.45;64.47;100301.97;5089033;28;20049;-65
2022/01/11 03:48:15;;;;;;;25.08;15.15;;;;;;;-0.46;64.22;100307.16;5088915;28;20086;-65
2022/01/11 03:50:51;;;;;;;29.88;18.15;;;;;;;-0.44;64.69;100314.13;5088561;28;20094;-65
2022/01/11 03:53:28;;;;;;;29.35;17.45;;;;;;;-0.99;64.18;100216.66;5088617;28;20358;-66
2022/01/11 03:58:47;;;;;;;27.10;16.70;;;;;;;-0.45;64.40;100307.16;5087937;28;20056;-65
2022/01/11 04:01:19;;;;;;;30.67;17.58;;;;;;;-0.40;64.40;100315.00;5088387;28;20094;-65
2022/01/11 04:03:51;;;;;;;26.27;17.58;;;;;;;-0.40;64.14;100310.66;5088634;28;20040;-65
2022/01/11 04:06:25;;;;;;;29.88;17.77;;;;;;;-0.39;64.21;100312.41;5088338;28;20358;-65
2022/01/11 04:08:59;;;;;;;28.85;17.40;;;;;;;-0.41;63.94;100318.47;5088271;28;20048;-65
2022/01/11 04:11:32;;;;;;;31.58;19.73;;;;;;;-0.41;64.24;100321.06;5087720;28;20094;-65
2022/01/11 04:14:05;;;;;;;30.10;19.10;;;;;;;-0.65;64.45;100279.31;5088469;28;20113;-65
2022/01/11 04:16:34;;;;;;;33.03;18.42;;;;;;;-0.45;64.40;100314.97;5088291;28;20062;-65
2022/01/11 04:19:05;;;;;;;30.92;18.70;;;;;;;-0.49;64.52;100318.44;5088007;28;20070;-65
2022/01/11 04:21:35;;;;;;;30.10;17.73;;;;;;;-0.48;64.25;100325.38;5088023;28;20103;-65
2022/01/11 04:24:07;;;;;;;29.55;17.20;;;;;;;-0.50;63.89;100319.31;5088507;28;20029;-65
2022/01/11 04:26:35;;;;;;;28.15;17.15;;;;;;;-0.44;64.46;100319.34;5087856;28;20040;-66
2022/01/11 04:29:05;;;;;;;30.13;17.45;;;;;;;-0.42;64.29;100319.34;5087899;28;20059;-66
2022/01/11 04:31:36;;;;;;;29.17;16.90;;;;;;;-0.41;64.24;100321.94;5087358;28;20052;-65
2022/01/11 04:34:05;;;;;;;30.30;18.42;;;;;;;-0.43;64.20;100323.69;5087717;28;20104;-66
2022/01/11 04:36:36;;;;;;;30.50;17.30;;;;;;;-0.44;64.44;100331.47;5087898;28;20056;-65
2022/01/11 04:39:09;;;;;;;31.05;16.63;;;;;;;-0.42;64.24;100329.75;5087913;28;20053;-65
2022/01/11 04:41:41;;;;;;;30.35;18.42;;;;;;;-0.43;63.96;100341.03;5087479;28;20243;-65
2022/01/11 04:44:11;;;;;;;31.40;19.38;;;;;;;-0.50;64.02;100340.13;5087580;28;20208;-65
2022/01/11 04:46:41;;;;;;;27.63;18.90;;;;;;;-0.50;64.18;100352.28;5087301;28;20204;-65
2022/01/11 04:49:11;;;;;;;30.48;18.02;;;;;;;-0.58;63.73;100348.78;5087507;28;20235;-65
2022/01/11 04:51:41;;;;;;;29.60;18.02;;;;;;;-0.57;63.97;100353.13;5087405;28;20182;-65
2022/01/11 04:54:13;;;;;;;32.38;19.27;;;;;;;-0.55;63.96;100364.41;5087306;28;20052;-65
2022/01/11 04:56:41;;;;;;;29.60;18.15;;;;;;;-0.56;64.24;100358.31;5087186;28;20201;-66
2022/01/11 04:59:11;;;;;;;31.00;18.27;;;;;;;-0.55;64.05;100356.59;5087242;28;20099;-66
2022/01/11 05:01:42;;;;;;;29.80;17.23;;;;;;;-0.61;63.54;100361.75;5087509;28;20079;-65
2022/01/11 05:04:13;;;;;;;25.80;15.90;;;;;;;-0.58;63.88;100367.00;5087197;28;20209;-65
2022/01/11 05:06:42;;;;;;;31.83;18.10;;;;;;;-0.81;63.66;100328.69;5087326;28;20301;-66
2022/01/11 05:09:13;;;;;;;27.50;17.55;;;;;;;-0.60;63.76;100364.38;5087049;28;20251;-66
2022/01/11 05:11:42;;;;;;;29.77;17.58;;;;;;;-0.55;64.03;100378.31;5087019;28;20347;-65
2022/01/11 05:14:12;;;;;;;27.80;17.20;;;;;;;-0.55;63.71;100380.91;5087273;28;20041;-66
2022/01/11 05:16:42;;;;;;;27.15;16.23;;;;;;;-0.54;63.50;100385.25;5086852;28;20090;-66
2022/01/11 05:19:13;;;;;;;27.42;16.33;;;;;;;-0.52;63.36;100388.72;5087429;28;20029;-65
2022/01/11 05:21:43;;;;;;;27.58;18.45;;;;;;;-0.55;63.49;100398.25;5086829;28;20040;-66
2022/01/11 05:24:14;;;;;;;27.92;17.20;;;;;;;-0.57;63.76;100398.25;5086745;28;20047;-66
2022/01/11 05:26:43;;;;;;;22.75;14.63;;;;;;;-0.61;63.76;100390.41;5087009;28;20293;-66
2022/01/11 05:29:13;;;;;;;26.67;15.48;;;;;;;-0.64;63.97;100393.00;5086656;28;20048;-65
2022/01/11 05:31:43;;;;;;;23.73;16.05;;;;;;;-0.64;63.27;100390.38;5086481;28;20292;-65
2022/01/11 05:34:13;;;;;;;27.40;18.00;;;;;;;-0.68;63.76;100390.38;5086513;28;20250;-65
2022/01/11 05:36:43;;;;;;;32.50;15.95;;;;;;;-0.67;63.83;100396.44;5085500;28;20304;-65
2022/01/11 05:39:15;;;;;;;25.98;15.63;;;;;;;-6.23;63.54;99476.66;5087147;28;20044;-65
2022/01/11 05:41:43;;;;;;;28.42;16.33;;;;;;;-0.66;63.43;100407.72;5086192;28;20036;-65
2022/01/11 05:44:14;;;;;;;24.90;13.88;;;;;;;-0.66;63.55;100408.59;5086915;28;20040;-65
2022/01/11 05:46:44;;;;;;;26.08;15.48;;;;;;;-0.67;63.48;100404.25;5086313;28;20048;-65
2022/01/11 05:49:14;;;;;;;24.75;16.83;;;;;;;-0.65;63.55;100412.94;5086163;28;20089;-65
2022/01/11 05:51:44;;;;;;;27.92;15.32;;;;;;;-0.66;63.32;100415.53;5086366;28;20040;-65
2022/01/11 05:54:15;;;;;;;30.65;17.10;;;;;;;-0.68;63.46;100416.41;5085364;28;20313;-66
2022/01/11 05:56:44;;;;;;;27.27;16.17;;;;;;;-0.66;63.48;100431.16;5086294;28;20343;-66
2022/01/11 05:59:14;;;;;;;28.58;16.42;;;;;;;-0.72;63.42;100435.47;5086033;28;20297;-66
2022/01/11 06:01:44;;;;;;;25.40;16.10;;;;;;;-0.86;63.63;100400.66;5086244;28;20064;-66
2022/01/11 06:04:15;;;;;;;25.35;16.35;;;;;;;-0.69;63.41;100435.50;5086424;28;20211;-66
2022/01/11 06:06:45;;;;;;;29.35;17.13;;;;;;;-0.63;63.63;100432.06;5085832;28;20193;-66
2022/01/11 06:09:16;;;;;;;28.92;15.30;;;;;;;-0.66;63.47;100438.97;5085309;28;20231;-66
2022/01/11 06:11:45;;;;;;;29.05;17.02;;;;;;;-0.61;63.44;100450.28;5085134;28;20104;-66
2022/01/11 06:14:15;;;;;;;28.80;18.38;;;;;;;-0.62;63.12;100445.94;5085941;28;20048;-66
2022/01/11 06:16:45;;;;;;;27.77;16.77;;;;;;;-0.62;63.24;100449.41;5085987;28;20044;-66
2022/01/11 06:19:15;;;;;;;24.90;14.93;;;;;;;-0.65;63.22;100456.34;5085720;28;20036;-66
2022/01/11 06:21:45;;;;;;;27.50;15.50;;;;;;;-2.04;63.17;100219.34;5085652;28;20047;-65
2022/01/11 06:24:17;;;;;;;26.45;16.05;;;;;;;-0.61;63.04;100463.31;5085783;28;20040;-66
2022/01/11 06:26:46;;;;;;;30.92;18.30;;;;;;;-0.59;62.91;100465.06;5085735;28;20070;-66
2022/01/11 06:29:16;;;;;;;30.25;17.73;;;;;;;-0.68;62.34;100463.25;5085750;28;20082;-66
2022/01/11 06:31:46;;;;;;;29.73;18.88;;;;;;;-0.69;62.78;100471.06;5085604;28;20104;-66
2022/01/11 06:34:16;;;;;;;30.05;15.55;;;;;;;-0.67;62.95;100469.34;5084945;28;20040;-66
2022/01/11 06:36:46;;;;;;;25.98;16.63;;;;;;;-0.68;62.90;100478.00;5086037;28;20033;-66
2022/01/11 06:39:17;;;;;;;33.78;20.23;;;;;;;-0.65;62.93;100482.38;5085656;28;20036;-66
2022/01/11 06:41:46;;;;;;;28.25;16.95;;;;;;;-0.69;63.06;100494.50;5085481;28;20063;-66
2022/01/11 06:44:16;;;;;;;26.85;16.17;;;;;;;-0.72;62.24;100490.13;5085350;28;20039;-66
2022/01/11 06:46:47;;;;;;;25.58;16.67;;;;;;;-0.72;62.20;100505.75;5085166;28;20094;-66
2022/01/11 06:49:17;;;;;;;29.20;16.92;;;;;;;-0.71;62.94;100510.09;5085887;28;20108;-66
2022/01/11 06:51:47;;;;;;;28.42;16.13;;;;;;;-0.66;62.71;100512.75;5085562;28;20044;-66
2022/01/11 06:54:19;;;;;;;27.55;15.48;;;;;;;-1.35;62.18;100521.56;5085096;28;20044;-66
2022/01/11 06:56:47;;;;;;;22.88;15.07;;;;;;;-0.72;62.85;100530.91;5085059;28;20040;-66
2022/01/11 06:59:17;;;;;;;29.80;15.55;;;;;;;-0.94;63.01;100479.53;5084592;28;20047;-66
2022/01/11 07:01:47;;;;;;;28.50;16.88;;;;;;;-0.72;62.50;100528.31;5085112;28;20215;-66
2022/01/11 07:04:17;;;;;;;26.10;16.00;;;;;;;-0.75;62.45;100528.28;5085325;28;20040;-66
2022/01/11 07:06:48;;;;;;;26.20;14.73;;;;;;;-0.71;62.18;100522.25;5088364;28;20048;-66
2022/01/11 07:09:19;;;;;;;26.40;16.70;;;;;;;-0.69;62.44;100536.16;5089494;28;20029;-65
2022/01/11 07:11:48;;;;;;;27.55;16.10;;;;;;;-0.68;62.74;100540.50;5089157;28;20060;-65
2022/01/11 07:14:18;;;;;;;28.77;17.40;;;;;;;-0.63;62.75;100541.41;5089988;28;20036;-64
2022/01/11 07:16:49;;;;;;;30.10;16.95;;;;;;;-0.65;63.00;100548.34;5089010;28;20049;-65
2022/01/11 07:19:20;;;;;;;27.90;16.77;;;;;;;-0.70;63.08;100553.50;5089098;28;20086;-65
2022/01/11 07:21:48;;;;;;;32.38;18.05;;;;;;;-0.73;62.64;100548.25;5088824;28;20108;-65
2022/01/11 07:24:21;;;;;;;32.22;15.93;;;;;;;-0.77;62.49;100556.03;5089424;28;20079;-65
2022/01/11 07:26:49;;;;;;;29.05;17.88;;;;;;;-0.76;63.22;100562.97;5088782;28;20057;-65
2022/01/11 07:29:19;;;;;;;29.63;16.67;;;;;;;-0.73;63.09;100568.22;5089456;28;20082;-65
2022/01/11 07:31:49;;;;;;;27.30;16.65;;;;;;;-0.76;62.94;100568.19;5088821;28;20044;-65
2022/01/11 07:34:20;;;;;;;27.77;16.88;;;;;;;-0.79;62.23;100563.81;5088988;28;20036;-65
2022/01/11 07:36:49;;;;;;;29.27;17.83;;;;;;;-0.76;62.71;100563.84;5088818;28;20036;-65
2022/01/11 07:39:21;;;;;;;27.33;16.10;;;;;;;-0.79;62.56;100565.56;5088699;28;20037;-65
2022/01/11 07:41:50;;;;;;;26.63;15.48;;;;;;;-0.80;62.37;100566.41;5088954;28;20047;-65
2022/01/11 07:44:20;;;;;;;27.85;17.17;;;;;;;-0.78;62.31;100575.97;5089033;28;20040;-65
2022/01/11 07:46:52;;;;;;;28.15;16.83;;;;;;;-0.76;62.75;100573.41;5088561;28;20060;-65
2022/01/11 07:49:20;;;;;;;30.00;17.25;;;;;;;-0.79;61.91;100578.56;5088619;28;20040;-65
2022/01/11 07:51:50;;;;;;;26.73;16.65;;;;;;;-0.81;61.68;100580.28;5088409;28;20040;-65
2022/01/11 07:54:22;;;;;;;29.50;18.02;;;;;;;-0.82;62.06;100608.03;5088213;28;20056;-65
2022/01/11 07:56:50;;;;;;;25.67;16.30;;;;;;;-0.79;62.27;100583.78;5088629;28;20102;-65
2022/01/11 07:59:20;;;;;;;31.98;17.20;;;;;;;-0.76;62.33;100576.88;5088262;28;20028;-65
2022/01/11 08:01:50;;;;;;;27.52;17.15;;;;;;;-0.74;62.05;100574.28;5088304;28;20042;-65
2022/01/11 08:04:20;;;;;;;31.33;18.75;;;;;;;-0.66;62.33;100575.22;5088171;28;20104;-65
2022/01/11 08:06:50;;;;;;;31.17;16.40;;;;;;;-0.62;62.04;100592.63;5088040;28;20047;-65
2022/01/11 08:09:22;;;;;;;27.73;17.58;;;;;;;-0.60;62.09;100583.09;5089455;28;20115;-65
2022/01/11 08:11:51;;;;;;;27.10;16.83;;;;;;;-0.62;62.01;100596.97;5088075;28;20040;-65
2022/01/11 08:14:21;;;;;;;26.27;17.17;;;;;;;-0.62;61.39;100594.34;5088271;28;20086;-65
2022/01/11 08:16:51;;;;;;;30.33;17.70;;;;;;;-0.59;61.84;100592.66;5087644;28;20119;-65
2022/01/11 08:19:24;;;;;;;25.65;15.73;;;;;;;-2.33;61.75;100281.38;5088805;28;20059;-65
2022/01/11 08:21:58;;;;;;;26.45;16.67;;;;;;;-0.51;61.31;100598.81;5088151;28;20048;-65
2022/01/11 08:24:31;;;;;;;28.33;16.30;;;;;;;-0.42;61.71;100600.63;5088279;28;20044;-65
2022/01/11 08:27:04;;;;;;;21.58;16.52;;;;;;;-0.41;61.15;100603.25;5087854;28;20040;-65
2022/01/11 08:29:37;;;;;;;26.58;17.02;;;;;;;-0.41;61.30;100598.03;5087860;28;20040;-65
2022/01/11 08:32:09;;;;;;;28.20;17.60;;;;;;;-0.43;61.34;100597.16;5087680;28;20347;-66
2022/01/11 08:34:42;;;;;;;29.88;18.00;;;;;;;-0.43;61.18;100601.47;5087667;28;20296;-65
2022/01/11 08:37:14;;;;;;;25.23;16.35;;;;;;;-0.38;61.05;100594.59;5087661;28;20227;-65
2022/01/11 08:39:48;;;;;;;30.17;15.52;;;;;;;-0.37;61.32;100594.59;5087214;28;20044;-65
2022/01/11 08:42:21;;;;;;;30.48;17.45;;;;;;;-0.30;60.87;100582.50;5087673;28;20048;-65
2022/01/11 08:44:53;;;;;;;29.10;16.63;;;;;;;-0.43;60.59;100589.34;5087590;28;20248;-65
2022/01/11 08:47:30;;;;;;;30.60;16.02;;;;;;;-0.43;60.99;100591.94;5087444;28;20288;-66
2022/01/11 08:50:04;;;;;;;23.05;13.82;;;;;;;-0.41;60.81;100591.94;5087267;28;20292;-67
2022/01/11 08:52:37;;;;;;;26.90;16.00;;;;;;;-0.46;60.52;100597.13;5087455;28;20040;-66
2022/01/11 08:55:12;;;;;;;23.27;15.00;;;;;;;-0.48;60.18;100609.25;5087304;28;20040;-66
2022/01/11 08:57:45;;;;;;;25.77;17.33;;;;;;;-0.50;60.91;100607.50;5087166;28;20040;-66
2022/01/11 09:00:18;;;;;;;27.52;15.25;;;;;;;-0.52;60.80;100609.22;5087160;28;20040;-66
2022/01/11 09:02:51;;;;;;;27.23;15.00;;;;;;;-0.53;60.70;100620.50;5087101;28;20292;-66
2022/01/11 09:05:24;;;;;;;22.27;13.52;;;;;;;-0.49;60.94;100623.13;5087412;28;20275;-66
2022/01/11 09:07:56;;;;;;;25.23;13.55;;;;;;;-0.46;61.27;100615.34;5086975;28;20037;-66
2022/01/11 09:10:30;;;;;;;24.60;15.07;;;;;;;-0.44;60.81;100607.56;5087054;28;20048;-66
2022/01/11 09:13:02;;;;;;;29.38;16.17;;;;;;;-0.45;60.93;100596.25;5087124;28;20094;-66
2022/01/11 09:15:34;;;;;;;25.75;14.90;;;;;;;-0.41;61.09;100599.78;5085698;28;20036;-66
2022/01/11 09:18:07;;;;;;;27.52;14.55;;;;;;;-0.39;60.57;100601.53;5086462;28;20301;-66
2022/01/11 09:20:39;;;;;;;29.00;15.43;;;;;;;-0.39;60.95;100598.06;5086685;28;20044;-66
2022/01/11 09:23:11;;;;;;;26.35;15.35;;;;;;;-0.39;60.48;100601.53;5085958;28;20086;-66
2022/01/11 09:25:47;;;;;;;24.35;15.48;;;;;;;-0.39;60.36;100603.25;5086495;28;20040;-66
2022/01/11 09:28:19;;;;;;;26.98;15.65;;;;;;;-0.43;60.24;100599.75;5084916;28;20094;-66
2022/01/11 09:30:52;;;;;;;22.25;13.88;;;;;;;-0.40;60.53;100609.31;5086687;28;20036;-66
2022/01/11 09:33:24;;;;;;;24.17;15.48;;;;;;;-0.40;60.72;100607.59;5086423;28;20098;-66
2022/01/11 09:35:56;;;;;;;23.30;14.43;;;;;;;-0.38;60.47;100607.59;5086156;28;20235;-66
2022/01/11 09:38:29;;;;;;;24.27;15.00;;;;;;;-0.68;60.67;100559.59;5086453;28;20048;-66
2022/01/11 09:41:03;;;;;;;24.45;14.15;;;;;;;-0.37;60.26;100620.66;5086356;28;20041;-66
2022/01/11 09:43:36;;;;;;;24.45;15.85;;;;;;;-0.44;60.10;100628.38;5086251;28;20086;-66
2022/01/11 09:46:08;;;;;;;23.27;13.70;;;;;;;-0.38;60.63;100624.09;5086261;28;20044;-66
2022/01/11 09:48:41;;;;;;;24.98;14.77;;;;;;;-0.15;60.23;100649.50;5085196;28;20086;-66
2022/01/11 09:51:13;;;;;;;26.40;16.02;;;;;;;-0.07;60.14;100629.59;5086092;28;20226;-66
2022/01/11 09:53:46;;;;;;;22.80;13.57;;;;;;;-0.03;59.55;100626.16;5086060;28;20110;-66
2022/01/11 09:56:20;;;;;;;25.90;15.63;;;;;;;-0.04;59.22;100627.00;5086113;28;20092;-66
2022/01/11 09:58:52;;;;;;;25.52;15.70;;;;;;;-0.33;58.82;100573.78;5086077;28;20045;-66
2022/01/11 10:01:24;;;;;;;27.45;14.70;;;;;;;-0.06;58.96;100616.56;5085945;28;20040;-66
2022/01/11 10:04:00;;;;;;;26.92;16.35;;;;;;;-0.08;59.08;100620.91;5085173;28;20177;-65
2022/01/11 10:06:32;;;;;;;24.55;16.77;;;;;;;-0.09;59.21;100613.06;5086039;28;20041;-65
2022/01/11 10:09:16;;;;;;;26.10;15.38;;;;;;;-0.03;59.20;100610.50;5085706;28;20052;-65
2022/01/11 10:11:51;;;;;;;22.33;13.90;;;;;;;0.02;59.01;100600.13;5085432;28;20087;-65
2022/01/11 10:14:26;;;;;;;22.90;14.05;;;;;;;0.09;58.62;100591.47;5085740;28;20062;-65
2022/01/11 10:17:08;;;;;;;27.55;15.73;;;;;;;0.10;58.36;100574.97;5085894;28;20082;-65
2022/01/11 10:19:43;;;;;;;23.20;14.07;;;;;;;0.19;58.61;100575.03;5085503;28;20040;-65
2022/01/11 10:22:19;;;;;;;26.70;14.77;;;;;;;0.06;57.66;100531.50;5085781;28;20342;-65
2022/01/11 10:24:55;;;;;;;26.55;15.57;;;;;;;0.47;57.84;100584.75;5085694;28;20350;-65
2022/01/11 10:27:30;;;;;;;21.27;13.52;;;;;;;0.38;57.39;100522.13;5085514;28;20261;-65
2022/01/11 10:30:06;;;;;;;24.08;14.65;;;;;;;0.84;57.25;100571.88;5085386;28;20044;-65
2022/01/11 10:32:40;;;;;;;24.75;14.35;;;;;;;1.11;57.02;100573.69;5084923;28;20346;-65
2022/01/11 10:35:18;;;;;;;27.35;15.52;;;;;;;0.16;55.68;100374.28;5084691;28;20223;-65
2022/01/11 10:37:53;;;;;;;25.00;15.88;;;;;;;1.61;55.57;100571.19;5085558;28;20041;-65
2022/01/11 10:40:30;;;;;;;24.85;14.85;;;;;;;1.14;55.07;100466.66;5085343;28;20086;-65
2022/01/11 10:43:06;;;;;;;24.45;14.95;;;;;;;2.07;53.75;100548.50;5085145;28;20086;-65
2022/01/11 10:45:40;;;;;;;24.85;13.57;;;;;;;2.25;54.28;100544.97;5085517;28;20045;-65
2022/01/11 10:48:14;;;;;;;26.48;16.75;;;;;;;2.39;53.03;100553.66;5084496;28;20182;-65
2022/01/11 10:50:49;;;;;;;18.77;13.63;;;;;;;2.56;53.09;100558.84;5085498;28;20102;-65
2022/01/11 10:53:24;;;;;;;23.25;13.88;;;;;;;2.70;52.38;100558.78;5085157;28;20119;-66
2022/01/11 10:55:58;;;;;;;29.45;16.90;;;;;;;2.31;52.26;100505.72;5085461;28;20047;-65
2022/01/11 10:58:35;;;;;;;21.80;13.27;;;;;;;2.86;52.64;100549.97;5085596;28;20299;-66
2022/01/11 11:01:10;;;;;;;25.88;15.02;;;;;;;2.84;52.12;100550.00;5085073;28;20044;-66
2022/01/11 11:03:44;;;;;;;23.05;15.27;;;;;;;2.81;53.04;100549.13;5085156;28;20086;-65
2022/01/11 11:06:16;;;;;;;26.08;16.08;;;;;;;2.85;53.33;100553.47;5085062;28;20347;-66
2022/01/11 11:08:48;;;;;;;24.48;15.10;;;;;;;2.84;53.69;100572.69;5084571;28;20342;-65
2022/01/11 11:11:23;;;;;;;24.90;16.55;;;;;;;3.01;52.45;100575.22;5084936;28;20045;-66
2022/01/11 11:13:59;;;;;;;28.33;16.17;;;;;;;1.73;51.57;100314.19;5084926;28;20037;-65
2022/01/11 11:16:39;;;;;;;21.92;13.85;;;;;;;3.40;49.61;100580.22;5084929;28;20036;-65
2022/01/11 11:19:11;;;;;;;22.50;14.50;;;;;;;3.56;51.19;100580.13;5085023;28;20044;-66
2022/01/11 11:21:43;;;;;;;23.20;15.63;;;;;;;3.66;50.68;100571.31;5084309;28;20063;-66
2022/01/11 11:24:16;;;;;;;23.83;17.02;;;;;;;3.87;50.46;100575.50;5084576;28;20040;-66
2022/01/11 11:26:49;;;;;;;23.27;15.80;;;;;;;3.81;50.53;100571.19;5084537;28;20170;-66
2022/01/11 11:29:24;;;;;;;24.42;14.25;;;;;;;3.59;50.47;100540.78;5084647;28;20297;-66
2022/01/11 11:31:57;;;;;;;23.95;14.77;;;;;;;3.66;49.95;100573.94;5084767;28;20083;-66
2022/01/11 11:34:30;;;;;;;24.75;14.20;;;;;;;3.77;49.99;100579.97;5084808;28;20047;-66
2022/01/11 11:37:06;;;;;;;26.33;15.40;;;;;;;-1.34;49.13;99696.34;5084737;28;20288;-65